sensor_id;sensor_type;location;lat;lon;timestamp;P1;durP1;ratioP1;P2;durP2;ratioP2
15153;SDS011;7677;41.896;25.004;2024-01-30T00:00:18;3.57;;;2.90;;
15153;SDS011;7677;41.896;25.004;2024-01-30T00:02:46;4.40;;;2.87;;
15153;SDS011;7677;41.896;25.004;2024-01-30T00:05:13;3.47;;;2.67;;
15153;SDS011;7677;41.896;25.004;2024-01-30T00:07:41;3.57;;;2.50;;
15153;SDS011;7677;41.896;25.004;2024-01-30T00:10:10;3.57;;;2.60;;
15153;SDS011;7677;41.896;25.004;2024-01-30T00:12:37;3.23;;;2.50;;
15153;SDS011;7677;41.896;25.004;2024-01-30T00:15:04;3.60;;;2.67;;
15153;SDS011;7677;41.896;25.004;2024-01-30T00:17:34;2.83;;;2.00;;
15153;SDS011;7677;41.896;25.004;2024-01-30T00:20:02;3.63;;;2.63;;
15153;SDS011;7677;41.896;25.004;2024-01-30T00:22:31;3.87;;;2.93;;
15153;SDS011;7677;41.896;25.004;2024-01-30T00:24:58;4.23;;;2.73;;
15153;SDS011;7677;41.896;25.004;2024-01-30T00:27:27;4.77;;;3.00;;
15153;SDS011;7677;41.896;25.004;2024-01-30T00:29:54;3.00;;;2.60;;
15153;SDS011;7677;41.896;25.004;2024-01-30T00:32:21;3.87;;;2.57;;
15153;SDS011;7677;41.896;25.004;2024-01-30T00:34:49;2.97;;;2.53;;
15153;SDS011;7677;41.896;25.004;2024-01-30T00:37:16;3.47;;;3.17;;
15153;SDS011;7677;41.896;25.004;2024-01-30T00:39:43;3.13;;;2.70;;
15153;SDS011;7677;41.896;25.004;2024-01-30T00:42:11;4.17;;;2.70;;
15153;SDS011;7677;41.896;25.004;2024-01-30T00:44:39;3.67;;;2.87;;
15153;SDS011;7677;41.896;25.004;2024-01-30T00:47:07;2.70;;;2.40;;
15153;SDS011;7677;41.896;25.004;2024-01-30T00:49:34;3.10;;;2.60;;
15153;SDS011;7677;41.896;25.004;2024-01-30T00:52:01;3.03;;;2.60;;
15153;SDS011;7677;41.896;25.004;2024-01-30T00:54:29;3.50;;;2.63;;
15153;SDS011;7677;41.896;25.004;2024-01-30T00:56:56;3.03;;;2.60;;
15153;SDS011;7677;41.896;25.004;2024-01-30T00:59:23;3.77;;;2.33;;
15153;SDS011;7677;41.896;25.004;2024-01-30T01:01:52;4.43;;;2.63;;
15153;SDS011;7677;41.896;25.004;2024-01-30T01:04:19;3.03;;;2.73;;
15153;SDS011;7677;41.896;25.004;2024-01-30T01:06:47;4.17;;;3.00;;
15153;SDS011;7677;41.896;25.004;2024-01-30T01:09:14;4.23;;;2.57;;
15153;SDS011;7677;41.896;25.004;2024-01-30T01:11:41;2.83;;;2.53;;
15153;SDS011;7677;41.896;25.004;2024-01-30T01:14:08;2.87;;;2.60;;
15153;SDS011;7677;41.896;25.004;2024-01-30T01:16:36;3.17;;;2.87;;
15153;SDS011;7677;41.896;25.004;2024-01-30T01:19:04;4.30;;;3.00;;
15153;SDS011;7677;41.896;25.004;2024-01-30T01:21:32;3.17;;;2.73;;
15153;SDS011;7677;41.896;25.004;2024-01-30T01:23:59;3.67;;;2.90;;
15153;SDS011;7677;41.896;25.004;2024-01-30T01:26:26;3.47;;;2.87;;
15153;SDS011;7677;41.896;25.004;2024-01-30T01:28:53;4.10;;;2.53;;
15153;SDS011;7677;41.896;25.004;2024-01-30T01:31:20;4.07;;;2.80;;
15153;SDS011;7677;41.896;25.004;2024-01-30T01:33:50;3.80;;;2.90;;
15153;SDS011;7677;41.896;25.004;2024-01-30T01:36:18;3.70;;;3.00;;
15153;SDS011;7677;41.896;25.004;2024-01-30T01:38:45;2.97;;;2.67;;
15153;SDS011;7677;41.896;25.004;2024-01-30T01:41:13;4.33;;;2.83;;
15153;SDS011;7677;41.896;25.004;2024-01-30T01:43:40;4.90;;;2.97;;
15153;SDS011;7677;41.896;25.004;2024-01-30T01:46:07;4.90;;;3.37;;
15153;SDS011;7677;41.896;25.004;2024-01-30T01:48:35;3.50;;;2.60;;
15153;SDS011;7677;41.896;25.004;2024-01-30T01:51:04;2.17;;;1.97;;
15153;SDS011;7677;41.896;25.004;2024-01-30T01:53:33;3.27;;;2.27;;
15153;SDS011;7677;41.896;25.004;2024-01-30T01:56:01;3.47;;;2.60;;
15153;SDS011;7677;41.896;25.004;2024-01-30T01:58:28;3.07;;;2.20;;
15153;SDS011;7677;41.896;25.004;2024-01-30T02:00:56;3.17;;;2.60;;
15153;SDS011;7677;41.896;25.004;2024-01-30T02:03:23;4.37;;;2.53;;
15153;SDS011;7677;41.896;25.004;2024-01-30T02:05:51;3.10;;;2.73;;
15153;SDS011;7677;41.896;25.004;2024-01-30T02:08:18;4.03;;;2.50;;
15153;SDS011;7677;41.896;25.004;2024-01-30T02:10:47;3.90;;;2.47;;
15153;SDS011;7677;41.896;25.004;2024-01-30T02:13:14;3.63;;;3.03;;
15153;SDS011;7677;41.896;25.004;2024-01-30T02:15:41;3.37;;;2.83;;
15153;SDS011;7677;41.896;25.004;2024-01-30T02:18:09;2.77;;;2.07;;
15153;SDS011;7677;41.896;25.004;2024-01-30T02:20:36;3.00;;;2.50;;
15153;SDS011;7677;41.896;25.004;2024-01-30T02:23:06;3.17;;;2.80;;
15153;SDS011;7677;41.896;25.004;2024-01-30T02:25:35;3.97;;;2.90;;
15153;SDS011;7677;41.896;25.004;2024-01-30T02:28:09;2.53;;;2.23;;
15153;SDS011;7677;41.896;25.004;2024-01-30T02:30:37;3.10;;;2.13;;
15153;SDS011;7677;41.896;25.004;2024-01-30T02:33:04;3.07;;;2.10;;
15153;SDS011;7677;41.896;25.004;2024-01-30T02:35:31;3.27;;;2.53;;
15153;SDS011;7677;41.896;25.004;2024-01-30T02:37:58;4.67;;;2.77;;
15153;SDS011;7677;41.896;25.004;2024-01-30T02:40:27;3.77;;;2.53;;
15153;SDS011;7677;41.896;25.004;2024-01-30T02:42:54;3.97;;;2.33;;
15153;SDS011;7677;41.896;25.004;2024-01-30T02:45:22;2.60;;;2.13;;
15153;SDS011;7677;41.896;25.004;2024-01-30T02:47:49;3.13;;;2.40;;
15153;SDS011;7677;41.896;25.004;2024-01-30T02:50:16;3.33;;;2.20;;
15153;SDS011;7677;41.896;25.004;2024-01-30T02:52:44;2.87;;;2.47;;
15153;SDS011;7677;41.896;25.004;2024-01-30T02:55:11;3.03;;;2.60;;
15153;SDS011;7677;41.896;25.004;2024-01-30T02:57:40;2.50;;;2.10;;
15153;SDS011;7677;41.896;25.004;2024-01-30T03:00:07;3.67;;;2.40;;
15153;SDS011;7677;41.896;25.004;2024-01-30T03:02:35;3.03;;;2.40;;
15153;SDS011;7677;41.896;25.004;2024-01-30T03:05:03;3.17;;;2.60;;
15153;SDS011;7677;41.896;25.004;2024-01-30T03:07:31;5.60;;;2.90;;
15153;SDS011;7677;41.896;25.004;2024-01-30T03:09:58;3.47;;;2.80;;
15153;SDS011;7677;41.896;25.004;2024-01-30T03:12:26;5.53;;;3.33;;
15153;SDS011;7677;41.896;25.004;2024-01-30T03:14:54;3.73;;;2.80;;
15153;SDS011;7677;41.896;25.004;2024-01-30T03:17:21;3.50;;;2.50;;
15153;SDS011;7677;41.896;25.004;2024-01-30T03:19:49;2.77;;;2.47;;
15153;SDS011;7677;41.896;25.004;2024-01-30T03:22:16;3.10;;;2.27;;
15153;SDS011;7677;41.896;25.004;2024-01-30T03:24:44;3.97;;;2.83;;
15153;SDS011;7677;41.896;25.004;2024-01-30T03:27:11;3.00;;;2.70;;
15153;SDS011;7677;41.896;25.004;2024-01-30T03:29:38;3.47;;;2.30;;
15153;SDS011;7677;41.896;25.004;2024-01-30T03:32:07;3.93;;;2.60;;
15153;SDS011;7677;41.896;25.004;2024-01-30T03:34:34;3.40;;;2.60;;
15153;SDS011;7677;41.896;25.004;2024-01-30T03:37:01;3.00;;;2.53;;
15153;SDS011;7677;41.896;25.004;2024-01-30T03:39:29;3.60;;;2.77;;
15153;SDS011;7677;41.896;25.004;2024-01-30T03:41:57;4.37;;;2.50;;
15153;SDS011;7677;41.896;25.004;2024-01-30T03:44:24;2.70;;;2.50;;
15153;SDS011;7677;41.896;25.004;2024-01-30T03:46:51;3.90;;;2.90;;
15153;SDS011;7677;41.896;25.004;2024-01-30T03:49:20;4.63;;;2.50;;
15153;SDS011;7677;41.896;25.004;2024-01-30T03:51:47;4.47;;;2.83;;
15153;SDS011;7677;41.896;25.004;2024-01-30T03:54:14;3.73;;;3.17;;
15153;SDS011;7677;41.896;25.004;2024-01-30T03:56:42;3.60;;;2.93;;
15153;SDS011;7677;41.896;25.004;2024-01-30T03:59:09;5.67;;;2.93;;
15153;SDS011;7677;41.896;25.004;2024-01-30T04:01:37;4.67;;;2.87;;
15153;SDS011;7677;41.896;25.004;2024-01-30T04:04:04;3.50;;;2.80;;
15153;SDS011;7677;41.896;25.004;2024-01-30T04:06:32;3.83;;;3.03;;
15153;SDS011;7677;41.896;25.004;2024-01-30T04:09:00;5.30;;;3.40;;
15153;SDS011;7677;41.896;25.004;2024-01-30T04:11:27;5.50;;;3.20;;
15153;SDS011;7677;41.896;25.004;2024-01-30T04:13:55;4.10;;;3.47;;
15153;SDS011;7677;41.896;25.004;2024-01-30T04:16:22;5.10;;;3.90;;
15153;SDS011;7677;41.896;25.004;2024-01-30T04:18:50;5.30;;;3.97;;
15153;SDS011;7677;41.896;25.004;2024-01-30T04:21:18;5.40;;;3.87;;
15153;SDS011;7677;41.896;25.004;2024-01-30T04:23:46;6.17;;;3.73;;
15153;SDS011;7677;41.896;25.004;2024-01-30T04:26:14;5.33;;;3.50;;
15153;SDS011;7677;41.896;25.004;2024-01-30T04:28:41;3.83;;;3.07;;
15153;SDS011;7677;41.896;25.004;2024-01-30T04:31:08;4.90;;;3.30;;
15153;SDS011;7677;41.896;25.004;2024-01-30T04:33:35;5.03;;;3.53;;
15153;SDS011;7677;41.896;25.004;2024-01-30T04:36:03;5.30;;;3.67;;
15153;SDS011;7677;41.896;25.004;2024-01-30T04:38:31;4.97;;;3.27;;
15153;SDS011;7677;41.896;25.004;2024-01-30T04:40:59;4.60;;;3.00;;
15153;SDS011;7677;41.896;25.004;2024-01-30T04:43:27;4.87;;;3.03;;
15153;SDS011;7677;41.896;25.004;2024-01-30T04:45:54;5.10;;;3.83;;
15153;SDS011;7677;41.896;25.004;2024-01-30T04:48:21;6.07;;;3.73;;
15153;SDS011;7677;41.896;25.004;2024-01-30T04:50:48;4.60;;;3.27;;
15153;SDS011;7677;41.896;25.004;2024-01-30T04:53:16;6.50;;;3.30;;
15153;SDS011;7677;41.896;25.004;2024-01-30T04:55:43;4.87;;;3.00;;
15153;SDS011;7677;41.896;25.004;2024-01-30T04:58:12;4.47;;;3.17;;
15153;SDS011;7677;41.896;25.004;2024-01-30T05:00:39;4.00;;;3.30;;
15153;SDS011;7677;41.896;25.004;2024-01-30T05:03:06;5.40;;;3.90;;
15153;SDS011;7677;41.896;25.004;2024-01-30T05:05:33;9.53;;;4.50;;
15153;SDS011;7677;41.896;25.004;2024-01-30T05:08:00;10.40;;;5.77;;
15153;SDS011;7677;41.896;25.004;2024-01-30T05:10:27;9.57;;;4.57;;
15153;SDS011;7677;41.896;25.004;2024-01-30T05:12:55;6.67;;;4.20;;
15153;SDS011;7677;41.896;25.004;2024-01-30T05:15:23;9.73;;;4.37;;
15153;SDS011;7677;41.896;25.004;2024-01-30T05:17:51;10.10;;;4.40;;
15153;SDS011;7677;41.896;25.004;2024-01-30T05:20:19;5.00;;;3.90;;
15153;SDS011;7677;41.896;25.004;2024-01-30T05:22:46;6.53;;;4.20;;
15153;SDS011;7677;41.896;25.004;2024-01-30T05:25:13;5.60;;;3.87;;
15153;SDS011;7677;41.896;25.004;2024-01-30T05:27:41;5.47;;;4.07;;
15153;SDS011;7677;41.896;25.004;2024-01-30T05:30:08;5.57;;;3.80;;
15153;SDS011;7677;41.896;25.004;2024-01-30T05:32:37;6.33;;;3.87;;
15153;SDS011;7677;41.896;25.004;2024-01-30T05:35:05;6.33;;;4.10;;
15153;SDS011;7677;41.896;25.004;2024-01-30T05:37:33;5.97;;;3.80;;
15153;SDS011;7677;41.896;25.004;2024-01-30T05:40:00;5.53;;;3.50;;
15153;SDS011;7677;41.896;25.004;2024-01-30T05:42:28;7.33;;;5.07;;
15153;SDS011;7677;41.896;25.004;2024-01-30T05:44:55;5.40;;;3.90;;
15153;SDS011;7677;41.896;25.004;2024-01-30T05:47:22;7.83;;;5.73;;
15153;SDS011;7677;41.896;25.004;2024-01-30T05:49:51;11.43;;;6.33;;
15153;SDS011;7677;41.896;25.004;2024-01-30T05:52:18;13.57;;;8.80;;
15153;SDS011;7677;41.896;25.004;2024-01-30T05:54:45;14.97;;;9.30;;
15153;SDS011;7677;41.896;25.004;2024-01-30T05:57:12;13.10;;;8.97;;
15153;SDS011;7677;41.896;25.004;2024-01-30T05:59:39;13.60;;;8.07;;
15153;SDS011;7677;41.896;25.004;2024-01-30T06:02:06;11.67;;;7.07;;
15153;SDS011;7677;41.896;25.004;2024-01-30T06:04:33;9.57;;;6.90;;
15153;SDS011;7677;41.896;25.004;2024-01-30T06:07:02;9.33;;;6.30;;
15153;SDS011;7677;41.896;25.004;2024-01-30T06:09:31;8.23;;;5.47;;
15153;SDS011;7677;41.896;25.004;2024-01-30T06:11:58;5.97;;;4.70;;
15153;SDS011;7677;41.896;25.004;2024-01-30T06:14:25;8.80;;;5.60;;
15153;SDS011;7677;41.896;25.004;2024-01-30T06:16:53;6.23;;;4.60;;
15153;SDS011;7677;41.896;25.004;2024-01-30T06:19:20;8.50;;;5.13;;
15153;SDS011;7677;41.896;25.004;2024-01-30T06:21:47;6.13;;;5.03;;
15153;SDS011;7677;41.896;25.004;2024-01-30T06:24:16;11.03;;;7.57;;
15153;SDS011;7677;41.896;25.004;2024-01-30T06:26:43;11.70;;;7.23;;
15153;SDS011;7677;41.896;25.004;2024-01-30T06:29:10;15.73;;;8.73;;
15153;SDS011;7677;41.896;25.004;2024-01-30T06:31:39;9.77;;;7.30;;
15153;SDS011;7677;41.896;25.004;2024-01-30T06:34:08;10.43;;;6.67;;
15153;SDS011;7677;41.896;25.004;2024-01-30T06:36:36;7.97;;;5.30;;
15153;SDS011;7677;41.896;25.004;2024-01-30T06:39:03;10.63;;;5.63;;
15153;SDS011;7677;41.896;25.004;2024-01-30T06:41:33;22.80;;;11.27;;
15153;SDS011;7677;41.896;25.004;2024-01-30T06:44:01;11.97;;;7.43;;
15153;SDS011;7677;41.896;25.004;2024-01-30T06:46:31;11.87;;;7.20;;
15153;SDS011;7677;41.896;25.004;2024-01-30T06:48:59;8.43;;;5.70;;
15153;SDS011;7677;41.896;25.004;2024-01-30T06:51:26;7.93;;;5.73;;
15153;SDS011;7677;41.896;25.004;2024-01-30T06:53:53;12.80;;;7.23;;
15153;SDS011;7677;41.896;25.004;2024-01-30T06:56:21;16.93;;;10.57;;
15153;SDS011;7677;41.896;25.004;2024-01-30T06:58:49;22.33;;;14.13;;
15153;SDS011;7677;41.896;25.004;2024-01-30T07:01:17;24.03;;;14.50;;
15153;SDS011;7677;41.896;25.004;2024-01-30T07:03:44;21.53;;;13.83;;
15153;SDS011;7677;41.896;25.004;2024-01-30T07:06:11;14.93;;;9.40;;
15153;SDS011;7677;41.896;25.004;2024-01-30T07:08:38;13.40;;;7.03;;
15153;SDS011;7677;41.896;25.004;2024-01-30T07:11:06;12.03;;;7.27;;
15153;SDS011;7677;41.896;25.004;2024-01-30T07:13:34;8.07;;;5.90;;
15153;SDS011;7677;41.896;25.004;2024-01-30T07:16:03;6.87;;;4.40;;
15153;SDS011;7677;41.896;25.004;2024-01-30T07:18:30;10.20;;;6.43;;
15153;SDS011;7677;41.896;25.004;2024-01-30T07:20:58;12.27;;;6.50;;
15153;SDS011;7677;41.896;25.004;2024-01-30T07:23:25;13.57;;;8.87;;
15153;SDS011;7677;41.896;25.004;2024-01-30T07:25:52;8.53;;;6.90;;
15153;SDS011;7677;41.896;25.004;2024-01-30T07:28:19;5.73;;;4.73;;
15153;SDS011;7677;41.896;25.004;2024-01-30T07:30:46;6.43;;;4.57;;
15153;SDS011;7677;41.896;25.004;2024-01-30T07:33:15;7.63;;;5.90;;
15153;SDS011;7677;41.896;25.004;2024-01-30T07:35:43;8.67;;;5.90;;
15153;SDS011;7677;41.896;25.004;2024-01-30T07:38:11;6.67;;;5.47;;
15153;SDS011;7677;41.896;25.004;2024-01-30T07:40:38;10.43;;;5.80;;
15153;SDS011;7677;41.896;25.004;2024-01-30T07:43:06;13.90;;;10.30;;
15153;SDS011;7677;41.896;25.004;2024-01-30T07:45:33;14.07;;;9.57;;
15153;SDS011;7677;41.896;25.004;2024-01-30T07:48:00;11.93;;;7.17;;
15153;SDS011;7677;41.896;25.004;2024-01-30T07:50:29;8.03;;;5.43;;
15153;SDS011;7677;41.896;25.004;2024-01-30T07:52:56;6.90;;;4.77;;
15153;SDS011;7677;41.896;25.004;2024-01-30T07:55:24;10.73;;;6.80;;
15153;SDS011;7677;41.896;25.004;2024-01-30T07:57:53;11.57;;;7.03;;
15153;SDS011;7677;41.896;25.004;2024-01-30T08:00:21;11.90;;;6.30;;
15153;SDS011;7677;41.896;25.004;2024-01-30T08:02:48;7.30;;;5.33;;
15153;SDS011;7677;41.896;25.004;2024-01-30T08:05:16;6.50;;;5.33;;
15153;SDS011;7677;41.896;25.004;2024-01-30T08:07:44;9.27;;;6.77;;
15153;SDS011;7677;41.896;25.004;2024-01-30T08:10:12;6.73;;;4.50;;
15153;SDS011;7677;41.896;25.004;2024-01-30T08:12:39;8.13;;;5.73;;
15153;SDS011;7677;41.896;25.004;2024-01-30T08:15:07;11.97;;;6.67;;
15153;SDS011;7677;41.896;25.004;2024-01-30T08:17:34;10.93;;;7.07;;
15153;SDS011;7677;41.896;25.004;2024-01-30T08:20:02;10.23;;;6.70;;
15153;SDS011;7677;41.896;25.004;2024-01-30T08:22:30;9.20;;;5.90;;
15153;SDS011;7677;41.896;25.004;2024-01-30T08:24:58;10.77;;;5.93;;
15153;SDS011;7677;41.896;25.004;2024-01-30T08:27:26;10.47;;;7.20;;
15153;SDS011;7677;41.896;25.004;2024-01-30T08:29:53;16.20;;;8.77;;
15153;SDS011;7677;41.896;25.004;2024-01-30T08:32:20;12.83;;;7.97;;
15153;SDS011;7677;41.896;25.004;2024-01-30T08:34:47;13.03;;;8.07;;
15153;SDS011;7677;41.896;25.004;2024-01-30T08:37:14;15.80;;;7.27;;
15153;SDS011;7677;41.896;25.004;2024-01-30T08:39:43;17.30;;;8.67;;
15153;SDS011;7677;41.896;25.004;2024-01-30T08:42:11;11.73;;;7.83;;
15153;SDS011;7677;41.896;25.004;2024-01-30T08:44:38;14.50;;;8.30;;
15153;SDS011;7677;41.896;25.004;2024-01-30T08:47:06;15.93;;;9.00;;
15153;SDS011;7677;41.896;25.004;2024-01-30T08:49:33;17.70;;;9.60;;
15153;SDS011;7677;41.896;25.004;2024-01-30T08:52:00;19.67;;;10.67;;
15153;SDS011;7677;41.896;25.004;2024-01-30T08:54:28;25.73;;;13.80;;
15153;SDS011;7677;41.896;25.004;2024-01-30T08:56:55;18.93;;;11.63;;
15153;SDS011;7677;41.896;25.004;2024-01-30T08:59:25;12.93;;;10.00;;
15153;SDS011;7677;41.896;25.004;2024-01-30T09:01:52;12.53;;;9.27;;
15153;SDS011;7677;41.896;25.004;2024-01-30T09:04:20;15.53;;;10.83;;
15153;SDS011;7677;41.896;25.004;2024-01-30T09:06:47;25.83;;;11.53;;
15153;SDS011;7677;41.896;25.004;2024-01-30T09:09:15;22.80;;;11.67;;
15153;SDS011;7677;41.896;25.004;2024-01-30T09:11:42;15.10;;;9.07;;
15153;SDS011;7677;41.896;25.004;2024-01-30T09:14:10;14.07;;;8.00;;
15153;SDS011;7677;41.896;25.004;2024-01-30T09:16:39;12.13;;;7.10;;
15153;SDS011;7677;41.896;25.004;2024-01-30T09:19:06;16.70;;;9.13;;
15153;SDS011;7677;41.896;25.004;2024-01-30T09:21:33;10.27;;;7.30;;
15153;SDS011;7677;41.896;25.004;2024-01-30T09:24:01;8.47;;;5.70;;
15153;SDS011;7677;41.896;25.004;2024-01-30T09:26:29;11.13;;;5.70;;
15153;SDS011;7677;41.896;25.004;2024-01-30T09:28:57;12.10;;;7.63;;
15153;SDS011;7677;41.896;25.004;2024-01-30T09:31:24;15.33;;;9.03;;
15153;SDS011;7677;41.896;25.004;2024-01-30T09:33:52;13.10;;;7.10;;
15153;SDS011;7677;41.896;25.004;2024-01-30T09:36:20;17.53;;;9.07;;
15153;SDS011;7677;41.896;25.004;2024-01-30T09:38:47;16.93;;;9.67;;
15153;SDS011;7677;41.896;25.004;2024-01-30T09:41:15;16.90;;;10.53;;
15153;SDS011;7677;41.896;25.004;2024-01-30T09:43:42;19.10;;;10.73;;
15153;SDS011;7677;41.896;25.004;2024-01-30T09:46:13;10.70;;;7.63;;
15153;SDS011;7677;41.896;25.004;2024-01-30T09:48:42;13.07;;;6.83;;
15153;SDS011;7677;41.896;25.004;2024-01-30T09:51:10;11.90;;;8.00;;
15153;SDS011;7677;41.896;25.004;2024-01-30T09:53:38;7.73;;;6.50;;
15153;SDS011;7677;41.896;25.004;2024-01-30T09:56:06;10.20;;;6.10;;
15153;SDS011;7677;41.896;25.004;2024-01-30T09:58:33;7.57;;;5.40;;
15153;SDS011;7677;41.896;25.004;2024-01-30T10:01:00;7.30;;;5.13;;
15153;SDS011;7677;41.896;25.004;2024-01-30T10:03:27;7.17;;;4.73;;
15153;SDS011;7677;41.896;25.004;2024-01-30T10:05:55;9.73;;;6.53;;
15153;SDS011;7677;41.896;25.004;2024-01-30T10:08:25;9.60;;;5.80;;
15153;SDS011;7677;41.896;25.004;2024-01-30T10:10:55;6.57;;;4.73;;
15153;SDS011;7677;41.896;25.004;2024-01-30T10:13:22;5.37;;;3.77;;
15153;SDS011;7677;41.896;25.004;2024-01-30T10:15:49;6.30;;;4.10;;
15153;SDS011;7677;41.896;25.004;2024-01-30T10:18:17;3.93;;;3.27;;
15153;SDS011;7677;41.896;25.004;2024-01-30T10:20:44;5.57;;;3.30;;
15153;SDS011;7677;41.896;25.004;2024-01-30T10:23:12;4.90;;;3.57;;
15153;SDS011;7677;41.896;25.004;2024-01-30T10:25:41;9.77;;;5.60;;
15153;SDS011;7677;41.896;25.004;2024-01-30T10:28:09;6.13;;;4.27;;
15153;SDS011;7677;41.896;25.004;2024-01-30T10:30:36;6.07;;;4.33;;
15153;SDS011;7677;41.896;25.004;2024-01-30T10:33:03;5.60;;;4.30;;
15153;SDS011;7677;41.896;25.004;2024-01-30T10:35:31;9.27;;;4.80;;
15153;SDS011;7677;41.896;25.004;2024-01-30T10:37:59;7.00;;;4.80;;
15153;SDS011;7677;41.896;25.004;2024-01-30T10:40:27;6.33;;;4.43;;
15153;SDS011;7677;41.896;25.004;2024-01-30T10:42:56;5.90;;;4.70;;
15153;SDS011;7677;41.896;25.004;2024-01-30T10:45:23;5.93;;;5.27;;
15153;SDS011;7677;41.896;25.004;2024-01-30T10:47:54;10.27;;;5.13;;
15153;SDS011;7677;41.896;25.004;2024-01-30T10:50:23;6.73;;;4.90;;
15153;SDS011;7677;41.896;25.004;2024-01-30T10:52:51;5.07;;;4.23;;
15153;SDS011;7677;41.896;25.004;2024-01-30T10:55:19;5.90;;;3.93;;
15153;SDS011;7677;41.896;25.004;2024-01-30T10:57:48;5.23;;;3.63;;
15153;SDS011;7677;41.896;25.004;2024-01-30T11:00:17;6.33;;;4.03;;
15153;SDS011;7677;41.896;25.004;2024-01-30T11:02:48;6.57;;;4.30;;
15153;SDS011;7677;41.896;25.004;2024-01-30T11:05:22;4.00;;;3.00;;
15153;SDS011;7677;41.896;25.004;2024-01-30T11:07:50;5.80;;;3.53;;
15153;SDS011;7677;41.896;25.004;2024-01-30T11:10:18;4.90;;;3.87;;
15153;SDS011;7677;41.896;25.004;2024-01-30T11:12:45;9.73;;;4.70;;
15153;SDS011;7677;41.896;25.004;2024-01-30T11:15:13;6.87;;;4.17;;
15153;SDS011;7677;41.896;25.004;2024-01-30T11:17:43;6.37;;;5.07;;
15153;SDS011;7677;41.896;25.004;2024-01-30T11:20:11;7.23;;;4.10;;
15153;SDS011;7677;41.896;25.004;2024-01-30T11:22:41;6.67;;;4.10;;
15153;SDS011;7677;41.896;25.004;2024-01-30T11:25:12;4.60;;;3.33;;
15153;SDS011;7677;41.896;25.004;2024-01-30T11:27:41;5.10;;;3.60;;
15153;SDS011;7677;41.896;25.004;2024-01-30T11:30:08;5.90;;;4.30;;
15153;SDS011;7677;41.896;25.004;2024-01-30T11:32:36;5.50;;;3.93;;
15153;SDS011;7677;41.896;25.004;2024-01-30T11:35:05;6.27;;;3.80;;
15153;SDS011;7677;41.896;25.004;2024-01-30T11:37:36;4.27;;;3.23;;
15153;SDS011;7677;41.896;25.004;2024-01-30T11:40:04;7.00;;;4.27;;
15153;SDS011;7677;41.896;25.004;2024-01-30T11:42:32;5.70;;;4.23;;
15153;SDS011;7677;41.896;25.004;2024-01-30T11:45:00;5.07;;;4.07;;
15153;SDS011;7677;41.896;25.004;2024-01-30T11:47:28;6.40;;;4.53;;
15153;SDS011;7677;41.896;25.004;2024-01-30T11:49:56;7.30;;;4.30;;
15153;SDS011;7677;41.896;25.004;2024-01-30T11:52:25;7.37;;;4.37;;
15153;SDS011;7677;41.896;25.004;2024-01-30T11:54:52;6.50;;;4.23;;
15153;SDS011;7677;41.896;25.004;2024-01-30T11:57:20;5.43;;;3.50;;
15153;SDS011;7677;41.896;25.004;2024-01-30T11:59:47;6.27;;;4.90;;
15153;SDS011;7677;41.896;25.004;2024-01-30T12:02:17;8.90;;;5.70;;
15153;SDS011;7677;41.896;25.004;2024-01-30T12:04:44;7.97;;;4.80;;
15153;SDS011;7677;41.896;25.004;2024-01-30T12:07:12;6.07;;;4.27;;
15153;SDS011;7677;41.896;25.004;2024-01-30T12:09:42;6.37;;;4.27;;
15153;SDS011;7677;41.896;25.004;2024-01-30T12:12:19;6.20;;;4.50;;
15153;SDS011;7677;41.896;25.004;2024-01-30T12:14:47;8.40;;;4.60;;
15153;SDS011;7677;41.896;25.004;2024-01-30T12:17:22;6.73;;;4.63;;
15153;SDS011;7677;41.896;25.004;2024-01-30T12:19:50;7.10;;;4.33;;
15153;SDS011;7677;41.896;25.004;2024-01-30T12:22:19;6.63;;;5.20;;
15153;SDS011;7677;41.896;25.004;2024-01-30T12:24:48;8.90;;;5.33;;
15153;SDS011;7677;41.896;25.004;2024-01-30T12:27:16;6.23;;;4.93;;
15153;SDS011;7677;41.896;25.004;2024-01-30T12:29:43;5.80;;;4.77;;
15153;SDS011;7677;41.896;25.004;2024-01-30T12:32:14;8.23;;;5.73;;
15153;SDS011;7677;41.896;25.004;2024-01-30T12:34:42;14.20;;;9.37;;
15153;SDS011;7677;41.896;25.004;2024-01-30T12:37:09;9.30;;;6.63;;
15153;SDS011;7677;41.896;25.004;2024-01-30T12:39:36;11.07;;;7.43;;
15153;SDS011;7677;41.896;25.004;2024-01-30T12:42:05;9.20;;;5.97;;
15153;SDS011;7677;41.896;25.004;2024-01-30T12:44:32;7.53;;;5.03;;
15153;SDS011;7677;41.896;25.004;2024-01-30T12:47:02;11.17;;;7.20;;
15153;SDS011;7677;41.896;25.004;2024-01-30T12:49:30;11.53;;;7.30;;
15153;SDS011;7677;41.896;25.004;2024-01-30T12:51:58;12.43;;;6.13;;
15153;SDS011;7677;41.896;25.004;2024-01-30T12:54:25;8.40;;;6.90;;
15153;SDS011;7677;41.896;25.004;2024-01-30T12:56:52;8.43;;;5.50;;
15153;SDS011;7677;41.896;25.004;2024-01-30T12:59:22;7.07;;;5.33;;
15153;SDS011;7677;41.896;25.004;2024-01-30T13:01:50;7.17;;;5.40;;
15153;SDS011;7677;41.896;25.004;2024-01-30T13:04:17;8.23;;;5.77;;
15153;SDS011;7677;41.896;25.004;2024-01-30T13:06:44;7.40;;;5.07;;
15153;SDS011;7677;41.896;25.004;2024-01-30T13:09:12;6.87;;;5.03;;
15153;SDS011;7677;41.896;25.004;2024-01-30T13:11:39;6.10;;;4.83;;
15153;SDS011;7677;41.896;25.004;2024-01-30T13:14:06;12.37;;;8.50;;
15153;SDS011;7677;41.896;25.004;2024-01-30T13:16:35;10.10;;;7.60;;
15153;SDS011;7677;41.896;25.004;2024-01-30T13:19:02;11.20;;;7.67;;
15153;SDS011;7677;41.896;25.004;2024-01-30T13:21:29;9.17;;;5.90;;
15153;SDS011;7677;41.896;25.004;2024-01-30T13:23:56;14.30;;;6.87;;
15153;SDS011;7677;41.896;25.004;2024-01-30T13:26:25;12.30;;;6.87;;
15153;SDS011;7677;41.896;25.004;2024-01-30T13:28:52;14.20;;;8.87;;
15153;SDS011;7677;41.896;25.004;2024-01-30T13:31:20;13.40;;;7.97;;
15153;SDS011;7677;41.896;25.004;2024-01-30T13:33:48;12.77;;;7.60;;
15153;SDS011;7677;41.896;25.004;2024-01-30T13:36:15;15.17;;;7.73;;
15153;SDS011;7677;41.896;25.004;2024-01-30T13:38:43;12.80;;;7.07;;
15153;SDS011;7677;41.896;25.004;2024-01-30T13:41:10;6.97;;;4.97;;
15153;SDS011;7677;41.896;25.004;2024-01-30T13:43:37;6.27;;;3.97;;
15153;SDS011;7677;41.896;25.004;2024-01-30T13:46:05;6.60;;;4.53;;
15153;SDS011;7677;41.896;25.004;2024-01-30T13:48:32;7.30;;;4.70;;
15153;SDS011;7677;41.896;25.004;2024-01-30T13:51:01;7.57;;;4.73;;
15153;SDS011;7677;41.896;25.004;2024-01-30T13:53:28;7.37;;;5.23;;
15153;SDS011;7677;41.896;25.004;2024-01-30T13:55:55;7.13;;;4.70;;
15153;SDS011;7677;41.896;25.004;2024-01-30T13:58:22;9.50;;;4.87;;
15153;SDS011;7677;41.896;25.004;2024-01-30T14:00:50;5.50;;;4.23;;
15153;SDS011;7677;41.896;25.004;2024-01-30T14:03:17;8.13;;;5.00;;
15153;SDS011;7677;41.896;25.004;2024-01-30T14:05:44;7.73;;;5.00;;
15153;SDS011;7677;41.896;25.004;2024-01-30T14:08:13;6.07;;;4.60;;
15153;SDS011;7677;41.896;25.004;2024-01-30T14:10:40;7.07;;;4.47;;
15153;SDS011;7677;41.896;25.004;2024-01-30T14:13:07;6.83;;;4.70;;
15153;SDS011;7677;41.896;25.004;2024-01-30T14:15:36;7.53;;;5.10;;
15153;SDS011;7677;41.896;25.004;2024-01-30T14:18:04;8.17;;;4.90;;
15153;SDS011;7677;41.896;25.004;2024-01-30T14:20:33;5.73;;;4.17;;
15153;SDS011;7677;41.896;25.004;2024-01-30T14:23:00;7.27;;;5.10;;
15153;SDS011;7677;41.896;25.004;2024-01-30T14:25:29;5.80;;;4.63;;
15153;SDS011;7677;41.896;25.004;2024-01-30T14:27:56;11.40;;;7.30;;
15153;SDS011;7677;41.896;25.004;2024-01-30T14:30:24;10.07;;;7.47;;
15153;SDS011;7677;41.896;25.004;2024-01-30T14:32:51;11.90;;;8.20;;
15153;SDS011;7677;41.896;25.004;2024-01-30T14:35:18;9.17;;;6.13;;
15153;SDS011;7677;41.896;25.004;2024-01-30T14:37:46;9.93;;;6.93;;
15153;SDS011;7677;41.896;25.004;2024-01-30T14:40:13;7.03;;;5.73;;
15153;SDS011;7677;41.896;25.004;2024-01-30T14:42:42;7.97;;;5.40;;
15153;SDS011;7677;41.896;25.004;2024-01-30T14:45:09;6.63;;;5.27;;